sensor_id;sensor_type;location;lat;lon;timestamp;P1;durP1;ratioP1;P2;durP2;ratioP2
14203;SDS011;7185;51.854;6.622;2023-02-11T00:00:29;45.15;;;19.98;;
14203;SDS011;7185;51.854;6.622;2023-02-11T00:03:01;51.78;;;21.02;;
14203;SDS011;7185;51.854;6.622;2023-02-11T00:05:33;47.90;;;21.75;;
14203;SDS011;7185;51.854;6.622;2023-02-11T00:08:04;51.17;;;20.38;;
14203;SDS011;7185;51.854;6.622;2023-02-11T00:10:37;47.08;;;20.50;;
14203;SDS011;7185;51.854;6.622;2023-02-11T00:13:10;50.63;;;20.20;;
14203;SDS011;7185;51.854;6.622;2023-02-11T00:15:42;40.03;;;19.42;;
14203;SDS011;7185;51.854;6.622;2023-02-11T00:18:13;47.08;;;18.38;;
14203;SDS011;7185;51.854;6.622;2023-02-11T00:20:45;47.03;;;20.10;;
14203;SDS011;7185;51.854;6.622;2023-02-11T00:23:17;43.05;;;19.83;;
14203;SDS011;7185;51.854;6.622;2023-02-11T00:25:48;44.30;;;20.42;;
14203;SDS011;7185;51.854;6.622;2023-02-11T00:28:21;40.17;;;19.33;;
14203;SDS011;7185;51.854;6.622;2023-02-11T00:30:53;46.30;;;18.85;;
14203;SDS011;7185;51.854;6.622;2023-02-11T00:33:25;44.65;;;19.40;;
14203;SDS011;7185;51.854;6.622;2023-02-11T00:35:57;41.90;;;19.05;;
14203;SDS011;7185;51.854;6.622;2023-02-11T00:38:28;41.65;;;18.27;;
14203;SDS011;7185;51.854;6.622;2023-02-11T00:41:00;42.92;;;19.02;;
14203;SDS011;7185;51.854;6.622;2023-02-11T00:43:33;39.67;;;19.92;;
14203;SDS011;7185;51.854;6.622;2023-02-11T00:46:05;39.78;;;17.77;;
14203;SDS011;7185;51.854;6.622;2023-02-11T00:48:38;41.30;;;18.80;;
14203;SDS011;7185;51.854;6.622;2023-02-11T00:51:10;45.58;;;18.80;;
14203;SDS011;7185;51.854;6.622;2023-02-11T00:53:42;44.97;;;17.95;;
14203;SDS011;7185;51.854;6.622;2023-02-11T00:56:14;40.75;;;17.40;;
14203;SDS011;7185;51.854;6.622;2023-02-11T00:58:47;44.85;;;18.02;;
14203;SDS011;7185;51.854;6.622;2023-02-11T01:01:19;41.78;;;18.05;;
14203;SDS011;7185;51.854;6.622;2023-02-11T01:03:51;39.90;;;18.50;;
14203;SDS011;7185;51.854;6.622;2023-02-11T01:06:26;44.08;;;18.73;;
14203;SDS011;7185;51.854;6.622;2023-02-11T01:08:58;48.72;;;17.50;;
14203;SDS011;7185;51.854;6.622;2023-02-11T01:11:29;35.88;;;17.65;;
14203;SDS011;7185;51.854;6.622;2023-02-11T01:14:02;41.78;;;17.35;;
14203;SDS011;7185;51.854;6.622;2023-02-11T01:16:34;39.13;;;17.35;;
14203;SDS011;7185;51.854;6.622;2023-02-11T01:19:06;40.45;;;18.00;;
14203;SDS011;7185;51.854;6.622;2023-02-11T01:21:37;39.00;;;17.83;;
14203;SDS011;7185;51.854;6.622;2023-02-11T01:24:09;40.17;;;17.70;;
14203;SDS011;7185;51.854;6.622;2023-02-11T01:26:40;39.67;;;16.83;;
14203;SDS011;7185;51.854;6.622;2023-02-11T01:29:13;40.25;;;17.48;;
14203;SDS011;7185;51.854;6.622;2023-02-11T01:31:45;41.58;;;16.30;;
14203;SDS011;7185;51.854;6.622;2023-02-11T01:34:17;37.40;;;15.93;;
14203;SDS011;7185;51.854;6.622;2023-02-11T01:36:48;34.75;;;16.83;;
14203;SDS011;7185;51.854;6.622;2023-02-11T01:39:20;35.17;;;16.42;;
14203;SDS011;7185;51.854;6.622;2023-02-11T01:41:51;38.30;;;16.05;;
14203;SDS011;7185;51.854;6.622;2023-02-11T01:44:25;34.50;;;15.40;;
14203;SDS011;7185;51.854;6.622;2023-02-11T01:49:35;35.53;;;14.15;;
14203;SDS011;7185;51.854;6.622;2023-02-11T01:52:11;35.70;;;15.63;;
14203;SDS011;7185;51.854;6.622;2023-02-11T01:54:47;39.33;;;14.98;;
14203;SDS011;7185;51.854;6.622;2023-02-11T01:57:40;33.58;;;14.82;;
14203;SDS011;7185;51.854;6.622;2023-02-11T02:00:17;38.72;;;15.32;;
14203;SDS011;7185;51.854;6.622;2023-02-11T02:02:53;27.05;;;14.20;;
14203;SDS011;7185;51.854;6.622;2023-02-11T02:05:31;28.15;;;14.25;;
14203;SDS011;7185;51.854;6.622;2023-02-11T02:08:08;32.38;;;14.23;;
14203;SDS011;7185;51.854;6.622;2023-02-11T02:10:47;26.98;;;14.00;;
14203;SDS011;7185;51.854;6.622;2023-02-11T02:13:22;30.27;;;14.07;;
14203;SDS011;7185;51.854;6.622;2023-02-11T02:15:56;28.67;;;13.68;;
14203;SDS011;7185;51.854;6.622;2023-02-11T02:18:34;28.02;;;13.70;;
14203;SDS011;7185;51.854;6.622;2023-02-11T02:24:29;27.98;;;13.30;;
14203;SDS011;7185;51.854;6.622;2023-02-11T02:27:22;30.75;;;14.57;;
14203;SDS011;7185;51.854;6.622;2023-02-11T02:33:18;29.40;;;12.70;;
14203;SDS011;7185;51.854;6.622;2023-02-11T02:36:03;26.20;;;13.02;;
14203;SDS011;7185;51.854;6.622;2023-02-11T02:38:39;26.55;;;12.70;;
14203;SDS011;7185;51.854;6.622;2023-02-11T02:41:18;31.13;;;12.93;;
14203;SDS011;7185;51.854;6.622;2023-02-11T02:43:53;33.22;;;12.63;;
14203;SDS011;7185;51.854;6.622;2023-02-11T02:46:26;33.10;;;13.80;;
14203;SDS011;7185;51.854;6.622;2023-02-11T02:49:01;30.08;;;12.23;;
14203;SDS011;7185;51.854;6.622;2023-02-11T02:51:45;28.88;;;12.60;;
14203;SDS011;7185;51.854;6.622;2023-02-11T02:54:35;29.35;;;12.77;;
14203;SDS011;7185;51.854;6.622;2023-02-11T02:57:35;28.73;;;13.68;;
14203;SDS011;7185;51.854;6.622;2023-02-11T03:00:17;27.67;;;13.15;;
14203;SDS011;7185;51.854;6.622;2023-02-11T03:02:57;30.52;;;13.25;;
14203;SDS011;7185;51.854;6.622;2023-02-11T03:05:45;30.67;;;13.38;;
14203;SDS011;7185;51.854;6.622;2023-02-11T03:08:24;31.15;;;12.90;;
14203;SDS011;7185;51.854;6.622;2023-02-11T03:11:00;33.58;;;12.43;;
14203;SDS011;7185;51.854;6.622;2023-02-11T03:13:35;27.80;;;12.82;;
14203;SDS011;7185;51.854;6.622;2023-02-11T03:16:08;27.50;;;12.70;;
14203;SDS011;7185;51.854;6.622;2023-02-11T03:18:46;31.07;;;12.70;;
14203;SDS011;7185;51.854;6.622;2023-02-11T03:21:21;33.75;;;12.15;;
14203;SDS011;7185;51.854;6.622;2023-02-11T03:23:55;29.88;;;11.10;;
14203;SDS011;7185;51.854;6.622;2023-02-11T03:26:30;32.53;;;12.73;;
14203;SDS011;7185;51.854;6.622;2023-02-11T03:29:09;29.67;;;11.85;;
14203;SDS011;7185;51.854;6.622;2023-02-11T03:31:50;27.77;;;11.52;;
14203;SDS011;7185;51.854;6.622;2023-02-11T03:34:28;26.13;;;12.48;;
14203;SDS011;7185;51.854;6.622;2023-02-11T03:37:06;31.50;;;12.25;;
14203;SDS011;7185;51.854;6.622;2023-02-11T03:39:44;27.02;;;11.77;;
14203;SDS011;7185;51.854;6.622;2023-02-11T03:42:18;26.65;;;11.77;;
14203;SDS011;7185;51.854;6.622;2023-02-11T03:44:55;25.65;;;12.05;;
14203;SDS011;7185;51.854;6.622;2023-02-11T03:47:31;23.10;;;12.50;;
14203;SDS011;7185;51.854;6.622;2023-02-11T03:50:06;27.85;;;11.48;;
14203;SDS011;7185;51.854;6.622;2023-02-11T03:52:41;30.25;;;12.23;;
14203;SDS011;7185;51.854;6.622;2023-02-11T03:55:16;27.02;;;11.90;;
14203;SDS011;7185;51.854;6.622;2023-02-11T03:57:50;26.65;;;12.45;;
14203;SDS011;7185;51.854;6.622;2023-02-11T04:00:28;24.20;;;11.48;;
14203;SDS011;7185;51.854;6.622;2023-02-11T04:03:00;28.58;;;11.73;;
14203;SDS011;7185;51.854;6.622;2023-02-11T04:05:32;25.42;;;12.50;;
14203;SDS011;7185;51.854;6.622;2023-02-11T04:08:05;25.75;;;11.98;;
14203;SDS011;7185;51.854;6.622;2023-02-11T04:10:37;37.25;;;12.35;;
14203;SDS011;7185;51.854;6.622;2023-02-11T04:13:08;28.48;;;12.00;;
14203;SDS011;7185;51.854;6.622;2023-02-11T04:15:40;33.78;;;12.88;;
14203;SDS011;7185;51.854;6.622;2023-02-11T04:18:11;25.83;;;12.55;;
14203;SDS011;7185;51.854;6.622;2023-02-11T04:20:43;26.13;;;11.55;;
14203;SDS011;7185;51.854;6.622;2023-02-11T04:23:16;24.13;;;11.90;;
14203;SDS011;7185;51.854;6.622;2023-02-11T04:25:47;30.27;;;12.50;;
14203;SDS011;7185;51.854;6.622;2023-02-11T04:28:21;23.63;;;11.38;;
14203;SDS011;7185;51.854;6.622;2023-02-11T04:30:52;27.75;;;12.25;;
14203;SDS011;7185;51.854;6.622;2023-02-11T04:33:24;32.75;;;13.32;;
14203;SDS011;7185;51.854;6.622;2023-02-11T04:35:56;29.95;;;13.20;;
14203;SDS011;7185;51.854;6.622;2023-02-11T04:38:29;27.60;;;13.15;;
14203;SDS011;7185;51.854;6.622;2023-02-11T04:41:00;40.22;;;13.80;;
14203;SDS011;7185;51.854;6.622;2023-02-11T04:43:32;29.13;;;12.50;;
14203;SDS011;7185;51.854;6.622;2023-02-11T04:46:04;31.45;;;13.75;;
14203;SDS011;7185;51.854;6.622;2023-02-11T04:48:35;40.15;;;15.18;;
14203;SDS011;7185;51.854;6.622;2023-02-11T04:51:07;33.65;;;14.30;;
14203;SDS011;7185;51.854;6.622;2023-02-11T04:53:41;28.40;;;13.02;;
14203;SDS011;7185;51.854;6.622;2023-02-11T04:56:12;31.50;;;13.45;;
14203;SDS011;7185;51.854;6.622;2023-02-11T04:58:44;29.27;;;14.50;;
14203;SDS011;7185;51.854;6.622;2023-02-11T05:01:16;31.73;;;15.13;;
14203;SDS011;7185;51.854;6.622;2023-02-11T05:03:47;28.08;;;14.40;;
14203;SDS011;7185;51.854;6.622;2023-02-11T05:06:20;38.58;;;14.93;;
14203;SDS011;7185;51.854;6.622;2023-02-11T05:08:53;30.15;;;14.50;;
14203;SDS011;7185;51.854;6.622;2023-02-11T05:11:24;27.23;;;14.15;;
14203;SDS011;7185;51.854;6.622;2023-02-11T05:13:56;33.42;;;14.65;;
14203;SDS011;7185;51.854;6.622;2023-02-11T05:16:27;31.08;;;15.50;;
14203;SDS011;7185;51.854;6.622;2023-02-11T05:18:59;29.70;;;14.80;;
14203;SDS011;7185;51.854;6.622;2023-02-11T05:21:31;34.78;;;13.80;;
14203;SDS011;7185;51.854;6.622;2023-02-11T05:24:04;31.35;;;14.95;;
14203;SDS011;7185;51.854;6.622;2023-02-11T05:26:36;31.15;;;15.25;;
14203;SDS011;7185;51.854;6.622;2023-02-11T05:29:08;37.95;;;15.88;;
14203;SDS011;7185;51.854;6.622;2023-02-11T05:31:40;35.25;;;14.50;;
14203;SDS011;7185;51.854;6.622;2023-02-11T05:34:11;31.95;;;15.00;;
14203;SDS011;7185;51.854;6.622;2023-02-11T05:36:43;32.33;;;16.27;;
14203;SDS011;7185;51.854;6.622;2023-02-11T05:39:16;35.88;;;15.88;;
14203;SDS011;7185;51.854;6.622;2023-02-11T05:41:47;35.33;;;15.77;;
14203;SDS011;7185;51.854;6.622;2023-02-11T05:44:19;41.95;;;16.48;;
14203;SDS011;7185;51.854;6.622;2023-02-11T05:46:51;35.50;;;15.70;;
14203;SDS011;7185;51.854;6.622;2023-02-11T05:49:22;32.80;;;15.43;;
14203;SDS011;7185;51.854;6.622;2023-02-11T05:51:54;34.28;;;15.40;;
14203;SDS011;7185;51.854;6.622;2023-02-11T05:54:27;31.27;;;15.15;;
14203;SDS011;7185;51.854;6.622;2023-02-11T05:56:58;32.28;;;15.27;;
14203;SDS011;7185;51.854;6.622;2023-02-11T05:59:30;36.72;;;15.15;;
14203;SDS011;7185;51.854;6.622;2023-02-11T06:02:01;32.13;;;15.65;;
14203;SDS011;7185;51.854;6.622;2023-02-11T06:04:33;38.60;;;15.80;;
14203;SDS011;7185;51.854;6.622;2023-02-11T06:07:05;35.38;;;15.48;;
14203;SDS011;7185;51.854;6.622;2023-02-11T06:09:38;39.47;;;16.75;;
14203;SDS011;7185;51.854;6.622;2023-02-11T06:12:10;35.65;;;15.65;;
14203;SDS011;7185;51.854;6.622;2023-02-11T06:14:41;34.60;;;16.13;;
14203;SDS011;7185;51.854;6.622;2023-02-11T06:17:13;37.88;;;15.80;;
14203;SDS011;7185;51.854;6.622;2023-02-11T06:19:44;38.80;;;15.93;;
14203;SDS011;7185;51.854;6.622;2023-02-11T06:22:16;36.33;;;14.80;;
14203;SDS011;7185;51.854;6.622;2023-02-11T06:24:49;37.15;;;16.67;;
14203;SDS011;7185;51.854;6.622;2023-02-11T06:27:20;37.45;;;16.48;;
14203;SDS011;7185;51.854;6.622;2023-02-11T06:29:52;37.53;;;16.30;;
14203;SDS011;7185;51.854;6.622;2023-02-11T06:32:25;38.13;;;15.80;;
14203;SDS011;7185;51.854;6.622;2023-02-11T06:34:57;38.65;;;17.50;;
14203;SDS011;7185;51.854;6.622;2023-02-11T06:37:28;39.03;;;15.02;;
14203;SDS011;7185;51.854;6.622;2023-02-11T06:40:01;35.63;;;15.68;;
14203;SDS011;7185;51.854;6.622;2023-02-11T06:42:33;37.05;;;15.68;;
14203;SDS011;7185;51.854;6.622;2023-02-11T06:45:07;35.40;;;16.00;;
14203;SDS011;7185;51.854;6.622;2023-02-11T06:47:40;33.90;;;14.85;;
14203;SDS011;7185;51.854;6.622;2023-02-11T06:50:12;34.85;;;15.43;;
14203;SDS011;7185;51.854;6.622;2023-02-11T06:52:44;37.83;;;15.82;;
14203;SDS011;7185;51.854;6.622;2023-02-11T06:55:17;38.10;;;16.40;;
14203;SDS011;7185;51.854;6.622;2023-02-11T06:57:49;33.60;;;15.02;;
14203;SDS011;7185;51.854;6.622;2023-02-11T07:00:21;38.78;;;15.95;;
14203;SDS011;7185;51.854;6.622;2023-02-11T07:02:52;36.15;;;16.25;;
14203;SDS011;7185;51.854;6.622;2023-02-11T07:05:24;35.15;;;16.02;;
14203;SDS011;7185;51.854;6.622;2023-02-11T07:07:56;38.55;;;16.33;;
14203;SDS011;7185;51.854;6.622;2023-02-11T07:10:29;36.88;;;15.68;;
14203;SDS011;7185;51.854;6.622;2023-02-11T07:13:00;34.60;;;15.43;;
14203;SDS011;7185;51.854;6.622;2023-02-11T07:15:32;37.35;;;16.80;;
14203;SDS011;7185;51.854;6.622;2023-02-11T07:18:04;41.53;;;15.90;;
14203;SDS011;7185;51.854;6.622;2023-02-11T07:20:35;36.97;;;16.10;;
14203;SDS011;7185;51.854;6.622;2023-02-11T07:23:07;40.28;;;15.98;;
14203;SDS011;7185;51.854;6.622;2023-02-11T07:25:40;36.45;;;16.42;;
14203;SDS011;7185;51.854;6.622;2023-02-11T07:28:12;43.80;;;17.77;;
14203;SDS011;7185;51.854;6.622;2023-02-11T07:30:43;34.78;;;16.83;;
14203;SDS011;7185;51.854;6.622;2023-02-11T07:33:15;40.20;;;17.80;;
14203;SDS011;7185;51.854;6.622;2023-02-11T07:35:47;40.83;;;16.67;;
14203;SDS011;7185;51.854;6.622;2023-02-11T07:38:18;35.90;;;16.20;;
14203;SDS011;7185;51.854;6.622;2023-02-11T07:40:51;43.15;;;18.75;;
14203;SDS011;7185;51.854;6.622;2023-02-11T07:43:23;39.90;;;17.58;;
14203;SDS011;7185;51.854;6.622;2023-02-11T07:45:54;43.85;;;18.02;;
14203;SDS011;7185;51.854;6.622;2023-02-11T07:48:26;38.33;;;17.25;;
14203;SDS011;7185;51.854;6.622;2023-02-11T07:51:03;41.13;;;17.42;;
14203;SDS011;7185;51.854;6.622;2023-02-11T07:53:36;43.60;;;18.00;;
14203;SDS011;7185;51.854;6.622;2023-02-11T07:56:10;43.22;;;17.65;;
14203;SDS011;7185;51.854;6.622;2023-02-11T07:58:42;41.40;;;17.80;;
14203;SDS011;7185;51.854;6.622;2023-02-11T08:01:16;40.58;;;17.50;;
14203;SDS011;7185;51.854;6.622;2023-02-11T08:03:51;46.30;;;18.17;;
14203;SDS011;7185;51.854;6.622;2023-02-11T08:06:23;40.22;;;17.27;;
14203;SDS011;7185;51.854;6.622;2023-02-11T08:08:57;36.15;;;16.70;;
14203;SDS011;7185;51.854;6.622;2023-02-11T08:11:34;35.40;;;17.98;;
14203;SDS011;7185;51.854;6.622;2023-02-11T08:14:07;36.10;;;16.10;;
14203;SDS011;7185;51.854;6.622;2023-02-11T08:16:39;47.83;;;17.73;;
14203;SDS011;7185;51.854;6.622;2023-02-11T08:19:11;41.25;;;17.77;;
14203;SDS011;7185;51.854;6.622;2023-02-11T08:21:44;40.15;;;18.00;;
14203;SDS011;7185;51.854;6.622;2023-02-11T08:24:16;42.65;;;17.90;;
14203;SDS011;7185;51.854;6.622;2023-02-11T08:26:49;40.08;;;18.60;;
14203;SDS011;7185;51.854;6.622;2023-02-11T08:29:20;48.60;;;17.92;;
14203;SDS011;7185;51.854;6.622;2023-02-11T08:31:52;40.55;;;18.48;;
14203;SDS011;7185;51.854;6.622;2023-02-11T08:34:23;42.13;;;18.50;;
14203;SDS011;7185;51.854;6.622;2023-02-11T08:36:55;49.10;;;19.35;;
14203;SDS011;7185;51.854;6.622;2023-02-11T08:39:26;49.97;;;19.40;;
14203;SDS011;7185;51.854;6.622;2023-02-11T08:41:59;44.13;;;18.33;;
14203;SDS011;7185;51.854;6.622;2023-02-11T08:44:31;40.85;;;19.30;;
14203;SDS011;7185;51.854;6.622;2023-02-11T08:47:02;50.83;;;20.27;;
14203;SDS011;7185;51.854;6.622;2023-02-11T08:49:34;50.40;;;19.73;;
14203;SDS011;7185;51.854;6.622;2023-02-11T08:52:06;42.60;;;20.42;;
14203;SDS011;7185;51.854;6.622;2023-02-11T08:54:38;45.20;;;20.52;;
14203;SDS011;7185;51.854;6.622;2023-02-11T08:57:11;54.88;;;21.20;;
14203;SDS011;7185;51.854;6.622;2023-02-11T08:59:44;54.05;;;20.50;;
14203;SDS011;7185;51.854;6.622;2023-02-11T09:02:19;51.80;;;21.80;;
14203;SDS011;7185;51.854;6.622;2023-02-11T09:04:51;59.05;;;21.05;;
14203;SDS011;7185;51.854;6.622;2023-02-11T09:07:22;49.25;;;20.77;;
14203;SDS011;7185;51.854;6.622;2023-02-11T09:09:54;58.30;;;21.55;;
14203;SDS011;7185;51.854;6.622;2023-02-11T09:12:27;49.40;;;21.45;;
14203;SDS011;7185;51.854;6.622;2023-02-11T09:14:58;50.55;;;20.83;;
14203;SDS011;7185;51.854;6.622;2023-02-11T09:17:30;46.40;;;21.00;;
14203;SDS011;7185;51.854;6.622;2023-02-11T09:20:02;50.28;;;22.00;;
14203;SDS011;7185;51.854;6.622;2023-02-11T09:22:34;54.58;;;21.98;;
14203;SDS011;7185;51.854;6.622;2023-02-11T09:25:06;56.70;;;22.50;;
14203;SDS011;7185;51.854;6.622;2023-02-11T09:27:39;52.22;;;22.65;;
14203;SDS011;7185;51.854;6.622;2023-02-11T09:30:11;52.05;;;22.15;;
14203;SDS011;7185;51.854;6.622;2023-02-11T09:32:43;58.95;;;22.65;;
14203;SDS011;7185;51.854;6.622;2023-02-11T09:35:15;54.95;;;23.42;;
14203;SDS011;7185;51.854;6.622;2023-02-11T09:37:46;51.03;;;22.80;;
14203;SDS011;7185;51.854;6.622;2023-02-11T09:40:18;57.95;;;23.25;;
14203;SDS011;7185;51.854;6.622;2023-02-11T09:42:52;58.20;;;25.30;;
14203;SDS011;7185;51.854;6.622;2023-02-11T09:45:27;54.78;;;23.77;;
14203;SDS011;7185;51.854;6.622;2023-02-11T09:48:01;57.55;;;23.17;;
14203;SDS011;7185;51.854;6.622;2023-02-11T09:50:38;62.17;;;25.00;;
14203;SDS011;7185;51.854;6.622;2023-02-11T09:53:14;56.92;;;23.70;;
14203;SDS011;7185;51.854;6.622;2023-02-11T09:55:51;61.58;;;24.67;;
14203;SDS011;7185;51.854;6.622;2023-02-11T09:58:27;59.10;;;24.23;;
14203;SDS011;7185;51.854;6.622;2023-02-11T10:01:02;55.92;;;24.05;;
14203;SDS011;7185;51.854;6.622;2023-02-11T10:06:31;64.30;;;24.45;;
14203;SDS011;7185;51.854;6.622;2023-02-11T10:09:15;55.40;;;24.73;;
14203;SDS011;7185;51.854;6.622;2023-02-11T10:11:58;60.08;;;23.67;;
14203;SDS011;7185;51.854;6.622;2023-02-11T10:14:47;60.90;;;24.60;;
14203;SDS011;7185;51.854;6.622;2023-02-11T10:17:33;62.17;;;25.80;;
14203;SDS011;7185;51.854;6.622;2023-02-11T10:20:15;58.20;;;24.17;;
14203;SDS011;7185;51.854;6.622;2023-02-11T10:22:54;58.55;;;24.83;;
14203;SDS011;7185;51.854;6.622;2023-02-11T10:25:29;61.22;;;25.50;;
14203;SDS011;7185;51.854;6.622;2023-02-11T10:28:10;62.95;;;24.30;;
14203;SDS011;7185;51.854;6.622;2023-02-11T10:30:48;56.75;;;24.60;;
14203;SDS011;7185;51.854;6.622;2023-02-11T10:33:28;63.75;;;24.88;;
14203;SDS011;7185;51.854;6.622;2023-02-11T10:36:04;54.35;;;24.90;;
14203;SDS011;7185;51.854;6.622;2023-02-11T10:38:37;55.72;;;24.50;;
14203;SDS011;7185;51.854;6.622;2023-02-11T10:41:09;60.13;;;24.55;;
14203;SDS011;7185;51.854;6.622;2023-02-11T10:43:46;57.72;;;24.73;;
14203;SDS011;7185;51.854;6.622;2023-02-11T10:46:21;58.00;;;25.23;;
14203;SDS011;7185;51.854;6.622;2023-02-11T10:48:56;57.33;;;23.63;;
14203;SDS011;7185;51.854;6.622;2023-02-11T10:51:28;52.45;;;23.65;;
14203;SDS011;7185;51.854;6.622;2023-02-11T10:54:09;59.55;;;25.23;;
14203;SDS011;7185;51.854;6.622;2023-02-11T10:56:49;60.80;;;25.20;;
14203;SDS011;7185;51.854;6.622;2023-02-11T10:59:24;54.13;;;23.88;;
14203;SDS011;7185;51.854;6.622;2023-02-11T11:02:00;52.20;;;22.67;;
14203;SDS011;7185;51.854;6.622;2023-02-11T11:04:37;54.58;;;23.30;;
14203;SDS011;7185;51.854;6.622;2023-02-11T11:07:12;55.67;;;24.50;;
14203;SDS011;7185;51.854;6.622;2023-02-11T11:09:48;55.85;;;22.73;;
14203;SDS011;7185;51.854;6.622;2023-02-11T11:12:26;53.83;;;23.45;;
14203;SDS011;7185;51.854;6.622;2023-02-11T11:15:13;60.65;;;24.52;;
14203;SDS011;7185;51.854;6.622;2023-02-11T11:18:07;54.58;;;22.20;;
14203;SDS011;7185;51.854;6.622;2023-02-11T11:20:43;61.45;;;22.80;;
14203;SDS011;7185;51.854;6.622;2023-02-11T11:23:26;54.10;;;21.50;;
14203;SDS011;7185;51.854;6.622;2023-02-11T11:26:03;61.95;;;21.85;;
14203;SDS011;7185;51.854;6.622;2023-02-11T11:28:37;51.45;;;22.77;;
14203;SDS011;7185;51.854;6.622;2023-02-11T11:31:12;50.28;;;19.92;;
14203;SDS011;7185;51.854;6.622;2023-02-11T11:33:50;51.15;;;21.45;;
14203;SDS011;7185;51.854;6.622;2023-02-11T11:36:30;51.93;;;21.87;;
14203;SDS011;7185;51.854;6.622;2023-02-11T11:39:14;55.58;;;20.98;;
14203;SDS011;7185;51.854;6.622;2023-02-11T11:41:53;51.65;;;21.30;;
14203;SDS011;7185;51.854;6.622;2023-02-11T11:47:15;52.97;;;21.67;;
14203;SDS011;7185;51.854;6.622;2023-02-11T11:50:04;48.58;;;21.00;;
14203;SDS011;7185;51.854;6.622;2023-02-11T11:52:49;48.67;;;21.55;;
14203;SDS011;7185;51.854;6.622;2023-02-11T11:55:30;53.20;;;22.50;;
14203;SDS011;7185;51.854;6.622;2023-02-11T11:58:09;49.78;;;21.23;;
14203;SDS011;7185;51.854;6.622;2023-02-11T12:00:52;51.53;;;21.45;;
14203;SDS011;7185;51.854;6.622;2023-02-11T12:03:56;49.92;;;20.95;;
14203;SDS011;7185;51.854;6.622;2023-02-11T12:06:48;43.28;;;20.10;;
14203;SDS011;7185;51.854;6.622;2023-02-11T12:09:28;48.60;;;20.52;;
14203;SDS011;7185;51.854;6.622;2023-02-11T12:12:19;46.55;;;20.40;;
14203;SDS011;7185;51.854;6.622;2023-02-11T12:15:06;48.28;;;20.90;;
14203;SDS011;7185;51.854;6.622;2023-02-11T12:17:56;48.22;;;20.25;;
14203;SDS011;7185;51.854;6.622;2023-02-11T12:20:49;44.22;;;20.67;;
14203;SDS011;7185;51.854;6.622;2023-02-11T12:23:40;43.00;;;20.67;;
14203;SDS011;7185;51.854;6.622;2023-02-11T12:26:25;45.22;;;21.33;;
14203;SDS011;7185;51.854;6.622;2023-02-11T12:29:03;40.05;;;19.70;;
14203;SDS011;7185;51.854;6.622;2023-02-11T12:31:48;44.42;;;19.65;;
14203;SDS011;7185;51.854;6.622;2023-02-11T12:34:42;39.97;;;19.38;;
14203;SDS011;7185;51.854;6.622;2023-02-11T12:37:28;46.63;;;20.40;;
14203;SDS011;7185;51.854;6.622;2023-02-11T12:40:15;42.42;;;19.83;;
14203;SDS011;7185;51.854;6.622;2023-02-11T12:42:59;39.80;;;19.08;;
14203;SDS011;7185;51.854;6.622;2023-02-11T12:51:43;39.95;;;19.10;;
14203;SDS011;7185;51.854;6.622;2023-02-11T12:54:23;43.95;;;20.67;;
14203;SDS011;7185;51.854;6.622;2023-02-11T12:57:01;41.28;;;19.55;;
14203;SDS011;7185;51.854;6.622;2023-02-11T12:59:39;43.67;;;19.60;;
14203;SDS011;7185;51.854;6.622;2023-02-11T13:02:23;44.10;;;21.63;;
14203;SDS011;7185;51.854;6.622;2023-02-11T13:05:01;44.30;;;21.33;;
14203;SDS011;7185;51.854;6.622;2023-02-11T13:07:36;44.70;;;20.50;;
14203;SDS011;7185;51.854;6.622;2023-02-11T13:10:21;44.67;;;20.45;;
14203;SDS011;7185;51.854;6.622;2023-02-11T13:12:58;39.00;;;19.75;;
14203;SDS011;7185;51.854;6.622;2023-02-11T13:15:49;46.83;;;21.00;;
14203;SDS011;7185;51.854;6.622;2023-02-11T13:18:27;44.90;;;21.98;;
14203;SDS011;7185;51.854;6.622;2023-02-11T13:21:18;44.70;;;20.88;;
14203;SDS011;7185;51.854;6.622;2023-02-11T13:23:59;45.40;;;21.02;;
14203;SDS011;7185;51.854;6.622;2023-02-11T13:26:39;45.42;;;22.02;;
14203;SDS011;7185;51.854;6.622;2023-02-11T13:29:20;47.80;;;21.70;;
14203;SDS011;7185;51.854;6.622;2023-02-11T13:32:04;45.22;;;22.10;;
14203;SDS011;7185;51.854;6.622;2023-02-11T13:34:55;45.42;;;22.25;;
14203;SDS011;7185;51.854;6.622;2023-02-11T13:37:29;42.88;;;22.00;;
14203;SDS011;7185;51.854;6.622;2023-02-11T13:40:15;40.10;;;20.85;;
14203;SDS011;7185;51.854;6.622;2023-02-11T13:42:52;40.55;;;19.33;;
14203;SDS011;7185;51.854;6.622;2023-02-11T13:45:29;44.40;;;21.67;;
14203;SDS011;7185;51.854;6.622;2023-02-11T13:48:12;34.63;;;17.58;;
14203;SDS011;7185;51.854;6.622;2023-02-11T13:50:50;33.60;;;17.38;;
14203;SDS011;7185;51.854;6.622;2023-02-11T13:53:24;35.28;;;16.92;;
14203;SDS011;7185;51.854;6.622;2023-02-11T13:56:07;32.83;;;16.25;;
14203;SDS011;7185;51.854;6.622;2023-02-11T13:58:45;32.15;;;16.20;;
14203;SDS011;7185;51.854;6.622;2023-02-11T14:05:08;34.30;;;15.88;;
14203;SDS011;7185;51.854;6.622;2023-02-11T14:08:14;27.77;;;14.73;;
14203;SDS011;7185;51.854;6.622;2023-02-11T14:14:15;31.58;;;14.60;;
14203;SDS011;7185;51.854;6.622;2023-02-11T14:19:57;33.03;;;15.88;;
14203;SDS011;7185;51.854;6.622;2023-02-11T14:22:38;26.33;;;14.50;;
14203;SDS011;7185;51.854;6.622;2023-02-11T14:25:19;29.23;;;14.75;;
14203;SDS011;7185;51.854;6.622;2023-02-11T14:27:56;29.90;;;15.55;;
14203;SDS011;7185;51.854;6.622;2023-02-11T14:30:38;29.15;;;15.68;;
14203;SDS011;7185;51.854;6.622;2023-02-11T14:33:27;31.83;;;14.70;;
14203;SDS011;7185;51.854;6.622;2023-02-11T14:36:44;29.13;;;14.35;;
14203;SDS011;7185;51.854;6.622;2023-02-11T14:39:27;29.50;;;13.93;;
14203;SDS011;7185;51.854;6.622;2023-02-11T14:42:09;29.85;;;13.98;;
14203;SDS011;7185;51.854;6.622;2023-02-11T14:44:48;27.42;;;14.23;;
14203;SDS011;7185;51.854;6.622;2023-02-11T14:47:23;26.13;;;14.32;;
14203;SDS011;7185;51.854;6.622;2023-02-11T14:50:01;29.10;;;15.07;;
14203;SDS011;7185;51.854;6.622;2023-02-11T14:52:33;31.00;;;15.38;;
14203;SDS011;7185;51.854;6.622;2023-02-11T14:55:12;26.27;;;12.95;;
14203;SDS011;7185;51.854;6.622;2023-02-11T14:58:03;23.15;;;13.18;;
14203;SDS011;7185;51.854;6.622;2023-02-11T15:00:36;27.45;;;13.68;;
14203;SDS011;7185;51.854;6.622;2023-02-11T15:03:22;29.75;;;13.45;;
14203;SDS011;7185;51.854;6.622;2023-02-11T15:05:57;27.75;;;13.05;;
14203;SDS011;7185;51.854;6.622;2023-02-11T15:08:31;27.90;;;13.65;;
14203;SDS011;7185;51.854;6.622;2023-02-11T15:11:06;27.50;;;13.02;;
14203;SDS011;7185;51.854;6.622;2023-02-11T15:13:42;31.63;;;14.00;;
14203;SDS011;7185;51.854;6.622;2023-02-11T15:16:18;24.65;;;13.18;;
14203;SDS011;7185;51.854;6.622;2023-02-11T15:18:53;26.70;;;14.07;;
14203;SDS011;7185;51.854;6.622;2023-02-11T15:21:29;29.60;;;14.35;;
14203;SDS011;7185;51.854;6.622;2023-02-11T15:24:03;29.20;;;13.15;;
14203;SDS011;7185;51.854;6.622;2023-02-11T15:26:37;24.75;;;13.98;;
14203;SDS011;7185;51.854;6.622;2023-02-11T15:29:13;24.50;;;13.80;;
14203;SDS011;7185;51.854;6.622;2023-02-11T15:31:46;24.77;;;13.63;;
14203;SDS011;7185;51.854;6.622;2023-02-11T15:34:22;24.58;;;13.50;;
14203;SDS011;7185;51.854;6.622;2023-02-11T15:36:55;30.83;;;14.07;;
14203;SDS011;7185;51.854;6.622;2023-02-11T15:39:31;29.15;;;13.95;;
14203;SDS011;7185;51.854;6.622;2023-02-11T15:42:15;24.23;;;13.13;;
14203;SDS011;7185;51.854;6.622;2023-02-11T15:45:06;27.25;;;13.35;;
14203;SDS011;7185;51.854;6.622;2023-02-11T15:47:41;23.50;;;13.88;;
14203;SDS011;7185;51.854;6.622;2023-02-11T15:50:20;27.17;;;13.30;;
14203;SDS011;7185;51.854;6.622;2023-02-11T15:52:56;23.70;;;13.98;;
14203;SDS011;7185;51.854;6.622;2023-02-11T15:55:33;29.92;;;13.13;;